Terminal Aerodrome Forecast
Issued by NWS Sterling, VA

Home | Current Version | Previous Version | Text Only | Print | Product List | Glossary On
Versions: 1 2 3 4 5 6 7 8 9 10 11 12 13 14 15 16 17 18 19 20 21 22 23
000
FTUS41 KLWX 052321
TAFBWI
TAF
KBWI 052321Z 0600/0706 00000KT P6SM FEW140 BKN250
     FM060800 02004KT P6SM OVC150
     FM061400 08006KT P6SM OVC100
     FM061500 09007KT P6SM -RA OVC050
     FM061700 08006KT 1/2SM -RA FG OVC004
     FM070000 06008KT 1SM -RA OVC003
     FM070500 02006KT 5SM -RA OVC003=

USA.gov is the U.S. government's official web portal to all federal, state and local government web resources and services.